createdAt,value
2018-12-04T00:01:11.254Z,6.61
2018-12-04T00:03:38.314Z,6.58
2018-12-04T00:06:05.359Z,6.61
2018-12-04T00:08:32.381Z,6.63
2018-12-04T00:10:59.406Z,6.67
2018-12-04T00:13:26.514Z,6.64
2018-12-04T00:15:53.680Z,6.60
2018-12-04T00:18:20.706Z,6.59
2018-12-04T00:20:47.754Z,6.63
2018-12-04T00:23:14.842Z,6.61
2018-12-04T00:25:41.901Z,6.55
2018-12-04T00:28:09.257Z,6.52
2018-12-04T00:30:36.355Z,6.53
2018-12-04T00:33:03.791Z,6.57
2018-12-04T00:35:31.136Z,6.73
2018-12-04T00:37:58.481Z,6.58
2018-12-04T00:40:25.622Z,6.53
2018-12-04T00:42:52.682Z,6.57
2018-12-04T00:45:19.804Z,6.53
2018-12-04T00:47:46.936Z,6.61
2018-12-04T00:50:14.066Z,6.53
2018-12-04T00:52:41.112Z,6.49
2018-12-04T00:55:08.500Z,6.50
2018-12-04T00:57:35.530Z,6.50
2018-12-04T01:00:04.761Z,6.58
2018-12-04T01:02:32.055Z,6.70
2018-12-04T01:04:59.090Z,6.65
2018-12-04T01:07:32.972Z,6.60
2018-12-04T01:10:00.003Z,6.64
2018-12-04T01:12:27.024Z,6.60
2018-12-04T01:14:54.614Z,6.54
2018-12-04T01:17:21.637Z,6.63
2018-12-04T01:19:48.667Z,6.60
2018-12-04T01:22:16.102Z,6.63
2018-12-04T01:24:43.124Z,6.60
2018-12-04T01:27:10.238Z,6.67
2018-12-04T01:29:37.254Z,6.67
2018-12-04T01:32:04.549Z,6.72
2018-12-04T01:34:31.591Z,6.77
2018-12-04T01:36:58.630Z,6.85
2018-12-04T01:39:25.953Z,6.80
2018-12-04T01:41:52.986Z,6.75
2018-12-04T01:44:21.145Z,6.73
2018-12-04T01:46:48.284Z,6.80
2018-12-04T01:49:15.301Z,6.75
2018-12-04T01:51:42.814Z,6.86
2018-12-04T01:54:09.858Z,6.74
2018-12-04T01:56:36.905Z,6.78
2018-12-04T01:59:03.950Z,6.78
2018-12-04T02:01:31.151Z,6.77
2018-12-04T02:04:00.212Z,6.85
2018-12-04T02:06:27.223Z,6.79
2018-12-04T02:08:54.390Z,6.75
2018-12-04T02:11:21.506Z,6.61
2018-12-04T02:13:48.513Z,6.61
2018-12-04T02:16:15.858Z,6.55
2018-12-04T02:18:42.865Z,6.45
2018-12-04T02:21:09.906Z,6.69
2018-12-04T02:23:37.099Z,6.49
2018-12-04T02:26:04.249Z,6.35
2018-12-04T02:28:37.543Z,6.31
2018-12-04T02:31:04.702Z,6.40
2018-12-04T02:33:31.721Z,6.37
2018-12-04T02:36:12.637Z,6.21
2018-12-04T02:38:39.645Z,6.37
2018-12-04T02:41:06.687Z,6.23
2018-12-04T02:43:33.777Z,6.38
2018-12-04T02:46:00.823Z,6.28
2018-12-04T02:48:28.251Z,6.22
2018-12-04T02:50:55.375Z,6.21
2018-12-04T02:53:22.415Z,6.22
2018-12-04T02:55:49.801Z,6.19
2018-12-04T02:58:16.842Z,6.18
2018-12-04T03:00:43.868Z,6.13
2018-12-04T03:03:11.078Z,6.13
2018-12-04T03:05:38.114Z,6.19
2018-12-04T03:08:05.260Z,6.03
2018-12-04T03:10:32.318Z,5.97
2018-12-04T03:12:59.335Z,5.97
2018-12-04T03:15:26.565Z,6.01
2018-12-04T03:17:53.701Z,5.91
2018-12-04T03:20:20.731Z,5.88
2018-12-04T03:22:47.755Z,5.86
2018-12-04T03:25:14.795Z,5.90
2018-12-04T03:27:41.829Z,5.89
2018-12-04T03:30:09.079Z,5.87
2018-12-04T03:32:36.219Z,5.79
2018-12-04T03:35:04.375Z,5.78
2018-12-04T03:37:36.039Z,5.77
2018-12-04T03:40:04.838Z,5.76
2018-12-04T03:42:32.303Z,5.69
2018-12-04T03:44:59.494Z,5.66
2018-12-04T03:47:26.772Z,5.68
2018-12-04T03:49:53.839Z,5.68
2018-12-04T03:52:21.105Z,5.65
2018-12-04T03:54:48.243Z,5.70
2018-12-04T03:57:15.262Z,5.65
2018-12-04T03:59:42.301Z,5.64
2018-12-04T04:02:09.339Z,5.70
2018-12-04T04:04:36.368Z,5.69
2018-12-04T04:07:03.514Z,5.75
2018-12-04T04:09:30.542Z,5.78
2018-12-04T04:11:59.945Z,5.86
2018-12-04T04:14:27.071Z,5.92
2018-12-04T04:16:54.106Z,5.80
2018-12-04T04:19:21.493Z,6.07
2018-12-04T04:21:48.525Z,6.25
2018-12-04T04:24:15.553Z,6.17
2018-12-04T04:26:42.609Z,6.05
2018-12-04T04:29:09.635Z,6.09
2018-12-04T04:31:36.695Z,5.95
2018-12-04T04:34:03.818Z,5.96
2018-12-04T04:36:30.844Z,5.84
2018-12-04T04:38:58.679Z,5.83
2018-12-04T04:41:25.694Z,5.77
2018-12-04T04:43:52.750Z,5.75
2018-12-04T04:46:20.151Z,5.75
2018-12-04T04:48:47.170Z,5.71
2018-12-04T04:51:14.222Z,5.67
2018-12-04T04:53:41.254Z,5.56
2018-12-04T04:56:08.261Z,5.56
2018-12-04T04:58:35.511Z,5.53
2018-12-04T05:01:02.541Z,5.56
2018-12-04T05:03:29.662Z,5.55
2018-12-04T05:05:57.005Z,5.50
2018-12-04T05:08:24.145Z,5.49
2018-12-04T05:10:51.174Z,5.46
2018-12-04T05:13:18.655Z,5.40
2018-12-04T05:15:45.688Z,5.38
2018-12-04T05:18:12.752Z,5.37
2018-12-04T05:20:40.215Z,5.30
2018-12-04T05:23:07.246Z,5.32
2018-12-04T05:25:34.299Z,5.30
2018-12-04T05:28:01.548Z,5.24
2018-12-04T05:30:28.582Z,5.20
2018-12-04T05:32:55.606Z,5.16
2018-12-04T05:35:22.680Z,5.11
2018-12-04T05:37:49.702Z,5.11
2018-12-04T05:40:16.735Z,5.04
2018-12-04T05:42:43.756Z,5.06
2018-12-04T05:45:10.804Z,5.03
2018-12-04T05:47:37.939Z,5.01
2018-12-04T05:50:07.290Z,4.95
2018-12-04T05:52:34.318Z,4.96
2018-12-04T05:55:01.471Z,4.97
2018-12-04T05:57:28.607Z,4.99
2018-12-04T05:59:55.609Z,4.99
2018-12-04T06:02:22.756Z,4.99
2018-12-04T06:04:49.781Z,4.96
2018-12-04T06:07:16.866Z,4.94
2018-12-04T06:09:44.008Z,4.96
2018-12-04T06:12:11.021Z,4.90
2018-12-04T06:14:38.315Z,4.89
2018-12-04T06:17:05.503Z,4.88
2018-12-04T06:19:32.522Z,4.95
2018-12-04T06:21:59.570Z,4.94
2018-12-04T06:24:26.705Z,4.94
2018-12-04T06:26:53.762Z,4.99
2018-12-04T06:29:20.803Z,4.95
2018-12-04T06:31:47.831Z,4.97
2018-12-04T06:34:15.106Z,4.94
2018-12-04T06:36:42.166Z,5.08
2018-12-04T06:39:09.425Z,5.12
2018-12-04T06:41:36.482Z,5.07
2018-12-04T06:44:03.743Z,5.07
2018-12-04T06:46:30.772Z,5.06
2018-12-04T06:48:58.194Z,5.12
2018-12-04T06:51:25.209Z,5.19
2018-12-04T06:53:52.236Z,5.16
2018-12-04T06:56:19.274Z,5.17
2018-12-04T06:58:46.405Z,5.18
2018-12-04T07:01:13.434Z,5.17
2018-12-04T07:03:40.550Z,5.17
2018-12-04T07:06:08.688Z,5.17
2018-12-04T07:08:35.810Z,5.05
2018-12-04T07:11:02.885Z,4.98
2018-12-04T07:13:29.921Z,5.07
2018-12-04T07:15:56.981Z,5.06
2018-12-04T07:18:24.905Z,5.07
2018-12-04T07:20:51.930Z,5.07
2018-12-04T07:23:18.987Z,4.96
2018-12-04T07:25:46.275Z,4.97
2018-12-04T07:28:13.311Z,4.96
2018-12-04T07:30:40.414Z,4.93
2018-12-04T07:33:07.823Z,4.87
2018-12-04T07:35:34.879Z,4.93
2018-12-04T07:38:01.925Z,4.87
2018-12-04T07:40:28.985Z,4.85
2018-12-04T07:42:56.006Z,4.88
2018-12-04T07:45:23.049Z,4.84
2018-12-04T07:47:50.398Z,4.77
2018-12-04T07:50:17.475Z,4.80
2018-12-04T07:52:44.626Z,4.81
2018-12-04T07:55:12.150Z,4.77
2018-12-04T07:57:39.286Z,4.75
2018-12-04T08:00:07.380Z,4.83
2018-12-04T08:02:35.033Z,4.90
2018-12-04T08:05:02.223Z,4.87
2018-12-04T08:07:29.311Z,4.87
2018-12-04T08:09:56.682Z,4.87
2018-12-04T08:12:23.711Z,4.86
2018-12-04T08:14:50.754Z,4.88
2018-12-04T08:17:17.794Z,4.90
2018-12-04T08:19:44.918Z,4.91
2018-12-04T08:22:12.098Z,5.02
2018-12-04T08:24:39.150Z,4.94
2018-12-04T08:27:06.937Z,4.98
2018-12-04T08:29:33.996Z,5.00
2018-12-04T08:32:01.022Z,5.03
2018-12-04T08:34:28.136Z,5.01
2018-12-04T08:36:55.265Z,5.05
2018-12-04T08:39:22.287Z,5.08
2018-12-04T08:41:49.578Z,5.07
2018-12-04T08:44:16.663Z,5.10
2018-12-04T08:46:43.941Z,5.08
2018-12-04T08:49:11.188Z,5.11
2018-12-04T08:51:38.210Z,5.17
2018-12-04T08:54:05.224Z,5.47
2018-12-04T08:56:32.290Z,5.50
2018-12-04T08:58:59.311Z,5.47
2018-12-04T09:01:26.330Z,5.48
2018-12-04T09:03:59.058Z,5.53
2018-12-04T09:06:22.567Z,5.59
2018-12-04T09:08:49.659Z,5.66
2018-12-04T09:11:16.844Z,5.71
2018-12-04T09:13:44.270Z,5.76
2018-12-04T09:16:11.332Z,5.80
2018-12-04T09:18:38.624Z,5.80
2018-12-04T09:21:05.876Z,5.84
2018-12-04T09:23:33.098Z,5.81
2018-12-04T09:26:00.266Z,5.83
2018-12-04T09:28:27.643Z,5.79
2018-12-04T09:30:54.764Z,5.80
2018-12-04T09:33:22.806Z,5.87
2018-12-04T09:35:50.023Z,5.89
2018-12-04T09:38:17.287Z,5.98
2018-12-04T09:40:44.505Z,6.16
2018-12-04T09:43:11.806Z,6.15
2018-12-04T09:45:38.847Z,6.13
2018-12-04T09:48:05.865Z,6.28
2018-12-04T09:50:33.027Z,6.57
2018-12-04T09:53:00.061Z,6.66
2018-12-04T09:55:27.077Z,6.62
2018-12-04T09:57:54.395Z,6.53
2018-12-04T10:00:21.435Z,6.57
2018-12-04T10:02:48.459Z,6.77
2018-12-04T10:05:15.512Z,6.70
2018-12-04T10:07:42.533Z,6.71
2018-12-04T10:10:09.692Z,6.59
2018-12-04T10:12:36.869Z,6.49
2018-12-04T10:15:04.816Z,6.50
2018-12-04T10:17:31.980Z,6.48
2018-12-04T10:20:02.582Z,6.44
2018-12-04T10:22:30.414Z,6.35
2018-12-04T10:24:58.569Z,6.34
2018-12-04T10:27:25.905Z,6.47
2018-12-04T10:29:53.145Z,6.38
2018-12-04T10:32:20.285Z,6.24
2018-12-04T10:34:47.323Z,6.32
2018-12-04T10:37:14.443Z,6.25
2018-12-04T10:39:41.554Z,6.33
2018-12-04T10:42:09.023Z,6.26
2018-12-04T10:44:36.058Z,6.21
2018-12-04T10:47:03.477Z,6.13
2018-12-04T10:49:30.738Z,6.17
2018-12-04T10:51:57.762Z,6.34
2018-12-04T10:54:25.232Z,6.32
2018-12-04T10:56:52.492Z,6.47
2018-12-04T10:59:19.723Z,6.54
2018-12-04T11:01:52.451Z,6.66
2018-12-04T11:04:19.513Z,6.61
2018-12-04T11:06:46.812Z,6.56
2018-12-04T11:09:13.829Z,6.61
2018-12-04T11:11:40.871Z,6.66
2018-12-04T11:14:08.462Z,6.47
2018-12-04T11:16:35.484Z,6.52
2018-12-04T11:19:02.650Z,6.55
2018-12-04T11:21:30.124Z,6.54
2018-12-04T11:23:58.161Z,6.36
2018-12-04T11:26:25.202Z,6.38
2018-12-04T11:28:53.645Z,6.51
2018-12-04T11:31:20.898Z,6.98
2018-12-04T11:33:48.054Z,6.65
2018-12-04T11:36:15.401Z,6.53
2018-12-04T11:38:42.561Z,6.65
2018-12-04T11:41:09.983Z,6.80
2018-12-04T11:43:37.076Z,6.70
2018-12-04T11:46:04.090Z,6.85
2018-12-04T11:48:31.126Z,6.70
2018-12-04T11:51:00.306Z,6.72
2018-12-04T11:53:28.214Z,6.79
2018-12-04T11:55:55.428Z,6.71
2018-12-04T11:58:22.477Z,6.58
2018-12-04T12:00:49.623Z,6.73
2018-12-04T12:03:16.683Z,6.89
2018-12-04T12:05:43.698Z,6.99
2018-12-04T12:08:12.741Z,7.00
2018-12-04T12:10:39.933Z,7.44
2018-12-04T12:13:06.953Z,7.13
2018-12-04T12:15:34.718Z,7.25
2018-12-04T12:18:01.937Z,7.18
2018-12-04T12:20:29.080Z,7.34
2018-12-04T12:22:56.091Z,7.34
2018-12-04T12:25:23.127Z,7.33
2018-12-04T12:27:50.180Z,7.35
2018-12-04T12:30:17.386Z,7.68
2018-12-04T12:32:44.509Z,7.28
2018-12-04T12:35:11.649Z,7.67
2018-12-04T12:37:38.659Z,7.71
2018-12-04T12:40:07.470Z,7.70
2018-12-04T12:42:34.521Z,7.79
2018-12-04T12:45:01.847Z,8.07
2018-12-04T12:47:28.969Z,7.92
2018-12-04T12:49:56.006Z,8.01
2018-12-04T12:52:23.122Z,7.97
2018-12-04T12:54:50.161Z,8.28
2018-12-04T12:57:17.189Z,8.62
2018-12-04T12:59:44.334Z,8.27
2018-12-04T13:02:11.526Z,8.21
2018-12-04T13:04:38.558Z,8.47
2018-12-04T13:10:08.653Z,8.94
2018-12-04T13:12:35.950Z,8.71
2018-12-04T13:15:03.898Z,8.70
2018-12-04T13:17:30.953Z,8.61
2018-12-04T13:19:58.387Z,8.55
2018-12-04T13:22:25.439Z,8.30
2018-12-04T13:24:52.492Z,8.08
2018-12-04T13:27:19.662Z,8.10
2018-12-04T13:29:46.811Z,7.87
2018-12-04T13:32:14.000Z,7.80
2018-12-04T13:34:41.573Z,7.63
2018-12-04T13:37:08.614Z,7.71
2018-12-04T13:39:35.765Z,7.66
2018-12-04T13:42:03.341Z,7.60
2018-12-04T13:44:30.637Z,7.50
2018-12-04T13:46:58.192Z,7.57
2018-12-04T13:49:25.300Z,7.58
2018-12-04T13:51:52.425Z,7.38
2018-12-04T13:54:19.480Z,7.30
2018-12-04T13:56:46.936Z,7.15
2018-12-04T13:59:13.957Z,7.11
2018-12-04T14:01:41.077Z,7.00
2018-12-04T14:04:08.374Z,6.94
2018-12-04T14:06:36.467Z,7.10
2018-12-04T14:09:05.456Z,6.95
2018-12-04T14:11:33.645Z,6.90
2018-12-04T14:14:00.934Z,6.92
2018-12-04T14:16:27.962Z,7.13
2018-12-04T14:18:55.047Z,7.13
2018-12-04T14:21:22.398Z,6.96
2018-12-04T14:23:49.459Z,6.95
2018-12-04T14:26:16.522Z,7.02
2018-12-04T14:28:43.646Z,6.88
2018-12-04T14:31:10.788Z,6.66
2018-12-04T14:33:37.989Z,6.61
2018-12-04T14:36:05.039Z,6.76
2018-12-04T14:38:32.096Z,6.55
2018-12-04T14:40:59.340Z,6.47
2018-12-04T14:43:26.461Z,6.39
2018-12-04T14:48:39.702Z,6.33
2018-12-04T14:51:06.854Z,6.29
2018-12-04T14:53:34.044Z,6.25
2018-12-04T14:56:02.031Z,6.18
2018-12-04T14:58:29.159Z,6.14
2018-12-04T15:00:56.206Z,6.14
2018-12-04T15:03:23.724Z,6.09
2018-12-04T15:05:50.826Z,6.15
2018-12-04T15:08:17.911Z,6.06
2018-12-04T15:10:44.949Z,6.05
2018-12-04T15:13:12.244Z,6.08
2018-12-04T15:15:39.490Z,6.03
2018-12-04T15:18:06.525Z,5.88
2018-12-04T15:20:33.557Z,5.88
2018-12-04T15:23:00.679Z,5.90
2018-12-04T15:25:27.797Z,5.80
2018-12-04T15:27:54.908Z,5.77
2018-12-04T15:30:21.950Z,5.80
2018-12-04T15:32:50.245Z,5.79
2018-12-04T15:35:17.408Z,5.73
2018-12-04T15:37:44.829Z,5.66
2018-12-04T15:40:12.062Z,5.66
2018-12-04T15:42:39.208Z,5.67
2018-12-04T15:45:06.383Z,5.69
2018-12-04T15:47:35.060Z,5.65
2018-12-04T15:50:02.481Z,5.47
2018-12-04T15:52:29.570Z,5.51
2018-12-04T15:54:56.729Z,5.37
2018-12-04T15:57:24.033Z,5.48
2018-12-04T15:59:51.657Z,5.49
2018-12-04T16:02:18.695Z,5.56
2018-12-04T16:04:45.947Z,5.50
2018-12-04T16:07:13.517Z,5.34
2018-12-04T16:09:41.210Z,5.29
2018-12-04T16:12:08.692Z,5.29
2018-12-04T16:14:36.186Z,5.31
2018-12-04T16:17:03.428Z,5.31
2018-12-04T16:19:31.144Z,5.27
2018-12-04T16:21:58.182Z,5.40
2018-12-04T16:24:25.213Z,5.36
2018-12-04T16:26:52.263Z,5.30
2018-12-04T16:29:19.290Z,5.28
2018-12-04T16:31:46.334Z,5.17
2018-12-04T16:34:13.353Z,5.09
2018-12-04T16:36:40.378Z,5.16
2018-12-04T16:39:08.262Z,5.05
2018-12-04T16:41:35.291Z,5.04
2018-12-04T16:44:02.697Z,4.97
2018-12-04T16:46:29.810Z,4.91
2018-12-04T16:48:56.998Z,4.90
2018-12-04T16:51:24.023Z,4.89
2018-12-04T16:53:51.196Z,4.88
2018-12-04T16:56:18.547Z,4.79
2018-12-04T16:58:46.406Z,4.81
2018-12-04T17:01:13.670Z,4.80
2018-12-04T17:03:40.696Z,4.83
2018-12-04T17:06:07.742Z,4.86
2018-12-04T17:08:34.810Z,4.87
2018-12-04T17:11:01.962Z,4.91
2018-12-04T17:13:28.990Z,4.87
2018-12-04T17:15:56.986Z,4.91
2018-12-04T17:18:24.002Z,4.87
2018-12-04T17:20:51.042Z,4.85
2018-12-04T17:23:18.122Z,4.82
2018-12-04T17:25:45.318Z,4.79
2018-12-04T17:28:12.482Z,4.73
2018-12-04T17:30:39.524Z,4.73
2018-12-04T17:33:06.770Z,4.73
2018-12-04T17:35:33.860Z,4.69
2018-12-04T17:38:01.321Z,4.67
2018-12-04T17:40:28.354Z,4.66
2018-12-04T17:42:55.509Z,4.57
2018-12-04T17:45:22.615Z,4.56
2018-12-04T17:47:49.711Z,4.54
2018-12-04T17:50:16.740Z,4.53
2018-12-04T17:52:43.889Z,4.48
2018-12-04T17:55:12.042Z,4.45
2018-12-04T17:57:39.079Z,4.45
2018-12-04T18:00:07.982Z,4.41
2018-12-04T18:02:37.014Z,4.49
2018-12-04T18:05:04.427Z,4.43
2018-12-04T18:07:33.484Z,4.43
2018-12-04T18:10:00.792Z,4.46
2018-12-04T18:12:27.983Z,4.45
2018-12-04T18:14:57.167Z,4.42
2018-12-04T18:17:24.525Z,4.41
2018-12-04T18:19:51.543Z,4.33
2018-12-04T18:22:19.869Z,4.29
2018-12-04T18:24:47.377Z,4.25
2018-12-04T18:27:14.567Z,4.22
2018-12-04T18:29:42.223Z,4.22
2018-12-04T18:32:09.423Z,4.19
2018-12-04T18:34:36.434Z,4.71
2018-12-04T18:37:03.896Z,4.77
2018-12-04T18:39:30.947Z,4.77
2018-12-04T18:41:58.095Z,4.32
2018-12-04T18:44:25.527Z,4.22
2018-12-04T18:46:52.565Z,4.16
2018-12-04T18:49:19.799Z,4.09
2018-12-04T18:51:47.063Z,4.04
2018-12-04T18:54:14.806Z,4.04
2018-12-04T18:56:42.074Z,4.01
2018-12-04T18:59:09.281Z,3.97
2018-12-04T19:01:36.417Z,3.94
2018-12-04T19:04:03.737Z,3.91
2018-12-04T19:06:30.762Z,3.93
2018-12-04T19:08:58.249Z,3.96
2018-12-04T19:11:25.290Z,3.80
2018-12-04T19:13:52.336Z,3.79
2018-12-04T19:16:26.771Z,3.78
2018-12-04T19:18:53.802Z,3.78
2018-12-04T19:21:21.570Z,3.80
2018-12-04T19:23:48.652Z,3.77
2018-12-04T19:26:16.291Z,3.73
2018-12-04T19:28:43.318Z,3.68
2018-12-04T19:31:10.454Z,3.65
2018-12-04T19:33:37.638Z,3.61
2018-12-04T19:36:04.687Z,3.64
2018-12-04T19:38:32.062Z,3.57
2018-12-04T19:40:59.342Z,3.58
2018-12-04T19:43:26.500Z,3.58
2018-12-04T19:45:53.722Z,3.58
2018-12-04T19:48:21.148Z,3.63
2018-12-04T19:50:48.282Z,3.65
2018-12-04T19:53:15.311Z,3.66
2018-12-04T19:55:42.564Z,3.66
2018-12-04T19:58:09.592Z,3.65
2018-12-04T20:00:36.631Z,3.69
2018-12-04T20:03:03.770Z,3.65
2018-12-04T20:05:30.847Z,3.63
2018-12-04T20:08:00.289Z,3.64
2018-12-04T20:10:27.597Z,3.68
2018-12-04T20:12:54.622Z,3.67
2018-12-04T20:15:21.711Z,3.64
2018-12-04T20:17:48.734Z,3.63
2018-12-04T20:20:15.843Z,3.68
2018-12-04T20:22:43.045Z,3.72
2018-12-04T20:25:10.210Z,3.67
2018-12-04T20:27:37.237Z,3.65
2018-12-04T20:30:05.433Z,3.69
2018-12-04T20:32:32.579Z,3.66
2018-12-04T20:34:59.614Z,3.67
2018-12-04T20:37:26.670Z,3.72
2018-12-04T20:39:53.938Z,3.78
2018-12-04T20:42:23.330Z,3.71
2018-12-04T20:44:50.046Z,3.78
2018-12-04T20:47:17.141Z,3.83
2018-12-04T20:49:44.215Z,3.77
2018-12-04T20:52:11.533Z,3.81
2018-12-04T20:54:38.565Z,3.77
2018-12-04T20:57:05.801Z,3.68
2018-12-04T20:59:33.019Z,3.54
2018-12-04T21:02:00.464Z,3.54
2018-12-04T21:04:27.488Z,3.52
2018-12-04T21:06:54.627Z,3.52
2018-12-04T21:09:21.694Z,3.56
2018-12-04T21:11:48.775Z,3.55
2018-12-04T21:14:15.823Z,3.60
2018-12-04T21:16:43.334Z,3.56
2018-12-04T21:19:10.423Z,3.57
2018-12-04T21:21:38.102Z,3.55
2018-12-04T21:24:05.634Z,3.53
2018-12-04T21:26:36.749Z,3.47
2018-12-04T21:29:08.015Z,3.55
2018-12-04T21:31:40.735Z,3.50
2018-12-04T21:34:13.871Z,3.57
2018-12-04T21:37:50.361Z,3.51
2018-12-04T21:40:23.792Z,3.55
2018-12-04T21:42:56.743Z,3.56
2018-12-04T21:45:29.393Z,3.57
2018-12-04T21:48:02.061Z,3.59
2018-12-04T21:50:29.094Z,3.61
2018-12-04T21:52:57.737Z,3.68
2018-12-04T21:55:25.238Z,3.71
2018-12-04T21:57:58.945Z,3.74
2018-12-04T22:00:26.431Z,3.73
2018-12-04T22:02:53.529Z,3.76
2018-12-04T22:05:20.562Z,3.79
2018-12-04T22:07:47.975Z,3.73
2018-12-04T22:10:15.010Z,3.77
2018-12-04T22:12:42.039Z,3.79
2018-12-04T22:15:09.539Z,3.78
2018-12-04T22:17:36.559Z,3.84
2018-12-04T22:20:05.410Z,3.85
2018-12-04T22:22:32.688Z,3.83
2018-12-04T22:24:59.791Z,3.91
2018-12-04T22:27:26.831Z,3.92
2018-12-04T22:29:53.851Z,3.91
2018-12-04T22:32:22.102Z,3.97
2018-12-04T22:34:49.331Z,3.94
2018-12-04T22:37:16.517Z,3.96
2018-12-04T22:39:43.653Z,3.95
2018-12-04T22:42:10.965Z,3.93
2018-12-04T22:44:38.162Z,3.94
2018-12-04T22:47:05.397Z,3.95
2018-12-04T22:49:32.905Z,3.95
2018-12-04T22:51:59.958Z,3.93
2018-12-04T22:54:27.046Z,3.87
2018-12-04T22:56:54.071Z,3.91
2018-12-04T22:59:21.286Z,3.96
2018-12-04T23:01:48.441Z,3.94
2018-12-04T23:04:15.788Z,4.03
2018-12-04T23:06:42.972Z,3.96
2018-12-04T23:09:10.153Z,3.99
2018-12-04T23:11:39.448Z,3.99
2018-12-04T23:14:06.938Z,4.04
2018-12-04T23:16:34.071Z,4.00
2018-12-04T23:19:01.158Z,4.03
2018-12-04T23:21:28.217Z,4.05
2018-12-04T23:23:55.457Z,4.06
2018-12-04T23:26:22.495Z,4.07
2018-12-04T23:28:49.510Z,4.01
2018-12-04T23:31:16.799Z,4.07
2018-12-04T23:33:43.937Z,4.02
2018-12-04T23:36:11.078Z,4.02
2018-12-04T23:38:38.169Z,4.05
2018-12-04T23:41:12.254Z,4.06
2018-12-04T23:43:39.308Z,4.04
2018-12-04T23:46:06.322Z,3.98
2018-12-04T23:48:33.469Z,4.02
2018-12-04T23:51:00.650Z,4.01
2018-12-04T23:53:27.673Z,4.00
2018-12-04T23:55:54.678Z,4.01
2018-12-04T23:58:21.705Z,3.95
